sensor_id;sensor_type;location;lat;lon;timestamp;P1;durP1;ratioP1;P2;durP2;ratioP2
31083;SDS011;36333;51.382;0.016;2023-02-08T00:00:49;80.93;;;24.27;;
31083;SDS011;36333;51.382;0.016;2023-02-08T00:03:16;77.05;;;23.73;;
31083;SDS011;36333;51.382;0.016;2023-02-08T00:05:44;76.78;;;22.92;;
31083;SDS011;36333;51.382;0.016;2023-02-08T00:08:11;89.35;;;24.20;;
31083;SDS011;36333;51.382;0.016;2023-02-08T00:10:39;61.67;;;22.92;;
31083;SDS011;36333;51.382;0.016;2023-02-08T00:13:07;68.55;;;22.15;;
31083;SDS011;36333;51.382;0.016;2023-02-08T00:15:39;73.82;;;21.67;;
31083;SDS011;36333;51.382;0.016;2023-02-08T00:18:07;75.80;;;21.23;;
31083;SDS011;36333;51.382;0.016;2023-02-08T00:20:37;70.45;;;22.08;;
31083;SDS011;36333;51.382;0.016;2023-02-08T00:23:06;71.32;;;22.13;;
31083;SDS011;36333;51.382;0.016;2023-02-08T00:25:34;70.68;;;21.92;;
31083;SDS011;36333;51.382;0.016;2023-02-08T00:28:02;74.82;;;20.95;;
31083;SDS011;36333;51.382;0.016;2023-02-08T00:30:31;61.83;;;20.70;;
31083;SDS011;36333;51.382;0.016;2023-02-08T00:35:27;63.30;;;19.27;;
31083;SDS011;36333;51.382;0.016;2023-02-08T00:37:55;60.92;;;19.65;;
31083;SDS011;36333;51.382;0.016;2023-02-08T00:42:50;54.85;;;17.65;;
31083;SDS011;36333;51.382;0.016;2023-02-08T00:45:18;56.97;;;17.80;;
31083;SDS011;36333;51.382;0.016;2023-02-08T00:47:45;57.25;;;17.50;;
31083;SDS011;36333;51.382;0.016;2023-02-08T00:50:13;54.17;;;15.70;;
31083;SDS011;36333;51.382;0.016;2023-02-08T00:52:41;48.25;;;15.45;;
31083;SDS011;36333;51.382;0.016;2023-02-08T00:55:10;56.85;;;14.98;;
31083;SDS011;36333;51.382;0.016;2023-02-08T00:57:37;48.67;;;15.25;;
31083;SDS011;36333;51.382;0.016;2023-02-08T01:00:05;40.55;;;13.35;;
31083;SDS011;36333;51.382;0.016;2023-02-08T01:02:36;43.72;;;14.95;;
31083;SDS011;36333;51.382;0.016;2023-02-08T01:05:04;50.55;;;14.65;;
31083;SDS011;36333;51.382;0.016;2023-02-08T01:07:34;44.63;;;14.52;;
31083;SDS011;36333;51.382;0.016;2023-02-08T01:10:05;45.58;;;14.77;;
31083;SDS011;36333;51.382;0.016;2023-02-08T01:12:33;44.60;;;15.35;;
31083;SDS011;36333;51.382;0.016;2023-02-08T01:15:01;43.15;;;13.95;;
31083;SDS011;36333;51.382;0.016;2023-02-08T01:19:57;52.78;;;13.52;;
31083;SDS011;36333;51.382;0.016;2023-02-08T01:22:24;39.80;;;13.63;;
31083;SDS011;36333;51.382;0.016;2023-02-08T01:24:54;36.72;;;12.68;;
31083;SDS011;36333;51.382;0.016;2023-02-08T01:27:21;38.60;;;13.02;;
31083;SDS011;36333;51.382;0.016;2023-02-08T01:29:49;35.17;;;12.25;;
31083;SDS011;36333;51.382;0.016;2023-02-08T01:32:16;40.20;;;13.45;;
31083;SDS011;36333;51.382;0.016;2023-02-08T01:34:44;44.38;;;13.70;;
31083;SDS011;36333;51.382;0.016;2023-02-08T01:39:39;39.00;;;12.15;;
31083;SDS011;36333;51.382;0.016;2023-02-08T01:42:09;34.50;;;10.85;;
31083;SDS011;36333;51.382;0.016;2023-02-08T01:47:42;34.80;;;10.95;;
31083;SDS011;36333;51.382;0.016;2023-02-08T01:50:12;41.42;;;12.05;;
31083;SDS011;36333;51.382;0.016;2023-02-08T01:52:41;43.40;;;12.52;;
31083;SDS011;36333;51.382;0.016;2023-02-08T01:55:14;41.65;;;12.43;;
31083;SDS011;36333;51.382;0.016;2023-02-08T01:57:46;40.15;;;12.07;;
31083;SDS011;36333;51.382;0.016;2023-02-08T02:00:19;47.00;;;11.75;;
31083;SDS011;36333;51.382;0.016;2023-02-08T02:02:49;36.15;;;12.05;;
31083;SDS011;36333;51.382;0.016;2023-02-08T02:05:24;30.70;;;10.65;;
31083;SDS011;36333;51.382;0.016;2023-02-08T02:07:58;30.90;;;10.15;;
31083;SDS011;36333;51.382;0.016;2023-02-08T02:12:56;39.17;;;11.55;;
31083;SDS011;36333;51.382;0.016;2023-02-08T02:15:28;33.97;;;11.80;;
31083;SDS011;36333;51.382;0.016;2023-02-08T02:17:55;42.38;;;11.88;;
31083;SDS011;36333;51.382;0.016;2023-02-08T02:34:39;39.23;;;11.20;;
31083;SDS011;36333;51.382;0.016;2023-02-08T02:41:04;40.08;;;10.65;;
31083;SDS011;36333;51.382;0.016;2023-02-08T02:43:35;33.50;;;11.00;;
31083;SDS011;36333;51.382;0.016;2023-02-08T02:46:23;41.90;;;11.75;;
31083;SDS011;36333;51.382;0.016;2023-02-08T02:51:42;35.95;;;10.93;;
31083;SDS011;36333;51.382;0.016;2023-02-08T02:54:13;31.83;;;10.48;;
31083;SDS011;36333;51.382;0.016;2023-02-08T02:56:47;35.38;;;11.27;;
31083;SDS011;36333;51.382;0.016;2023-02-08T02:59:18;35.58;;;10.38;;
31083;SDS011;36333;51.382;0.016;2023-02-08T03:01:46;35.95;;;11.35;;
31083;SDS011;36333;51.382;0.016;2023-02-08T03:04:18;40.67;;;11.05;;
31083;SDS011;36333;51.382;0.016;2023-02-08T03:07:21;33.40;;;10.90;;
31083;SDS011;36333;51.382;0.016;2023-02-08T03:15:39;30.98;;;10.45;;
31083;SDS011;36333;51.382;0.016;2023-02-08T03:23:58;30.77;;;10.52;;
31083;SDS011;36333;51.382;0.016;2023-02-08T03:26:36;35.30;;;9.77;;
31083;SDS011;36333;51.382;0.016;2023-02-08T03:29:20;36.47;;;10.15;;
31083;SDS011;36333;51.382;0.016;2023-02-08T03:32:03;29.63;;;10.20;;
31083;SDS011;36333;51.382;0.016;2023-02-08T03:37:36;30.02;;;9.13;;
31083;SDS011;36333;51.382;0.016;2023-02-08T03:40:27;33.65;;;9.90;;
31083;SDS011;36333;51.382;0.016;2023-02-08T03:43:00;29.92;;;10.30;;
31083;SDS011;36333;51.382;0.016;2023-02-08T03:45:38;34.78;;;9.57;;
31083;SDS011;36333;51.382;0.016;2023-02-08T03:48:09;29.05;;;9.68;;
31083;SDS011;36333;51.382;0.016;2023-02-08T03:50:39;32.53;;;9.77;;
31083;SDS011;36333;51.382;0.016;2023-02-08T03:53:09;29.73;;;9.30;;
31083;SDS011;36333;51.382;0.016;2023-02-08T03:55:38;27.35;;;9.02;;
31083;SDS011;36333;51.382;0.016;2023-02-08T03:58:12;30.27;;;9.00;;
31083;SDS011;36333;51.382;0.016;2023-02-08T04:01:08;31.70;;;9.70;;
31083;SDS011;36333;51.382;0.016;2023-02-08T04:03:51;27.08;;;8.45;;
31083;SDS011;36333;51.382;0.016;2023-02-08T04:06:20;25.30;;;8.65;;
31083;SDS011;36333;51.382;0.016;2023-02-08T04:08:48;33.55;;;8.93;;
31083;SDS011;36333;51.382;0.016;2023-02-08T04:11:16;31.27;;;9.05;;
31083;SDS011;36333;51.382;0.016;2023-02-08T04:13:44;20.48;;;7.45;;
31083;SDS011;36333;51.382;0.016;2023-02-08T04:16:11;26.33;;;9.13;;
31083;SDS011;36333;51.382;0.016;2023-02-08T04:21:06;28.17;;;7.93;;
31083;SDS011;36333;51.382;0.016;2023-02-08T04:23:34;31.23;;;8.93;;
31083;SDS011;36333;51.382;0.016;2023-02-08T04:28:29;27.98;;;8.23;;
31083;SDS011;36333;51.382;0.016;2023-02-08T04:30:57;25.05;;;7.80;;
31083;SDS011;36333;51.382;0.016;2023-02-08T04:33:25;28.30;;;8.15;;
31083;SDS011;36333;51.382;0.016;2023-02-08T04:35:52;23.77;;;8.55;;
31083;SDS011;36333;51.382;0.016;2023-02-08T04:38:20;26.05;;;8.60;;
31083;SDS011;36333;51.382;0.016;2023-02-08T04:40:47;30.63;;;8.68;;
31083;SDS011;36333;51.382;0.016;2023-02-08T04:43:15;25.77;;;9.10;;
31083;SDS011;36333;51.382;0.016;2023-02-08T04:45:42;28.17;;;9.35;;
31083;SDS011;36333;51.382;0.016;2023-02-08T04:48:10;23.75;;;8.48;;
31083;SDS011;36333;51.382;0.016;2023-02-08T04:50:38;26.10;;;8.88;;
31083;SDS011;36333;51.382;0.016;2023-02-08T04:53:06;32.42;;;9.23;;
31083;SDS011;36333;51.382;0.016;2023-02-08T04:55:34;30.73;;;8.55;;
31083;SDS011;36333;51.382;0.016;2023-02-08T04:58:02;26.35;;;8.93;;
31083;SDS011;36333;51.382;0.016;2023-02-08T05:02:57;32.08;;;8.50;;
31083;SDS011;36333;51.382;0.016;2023-02-08T05:07:53;24.35;;;8.48;;
31083;SDS011;36333;51.382;0.016;2023-02-08T05:10:21;29.73;;;9.50;;
31083;SDS011;36333;51.382;0.016;2023-02-08T05:12:48;26.88;;;9.32;;
31083;SDS011;36333;51.382;0.016;2023-02-08T05:15:16;34.03;;;9.55;;
31083;SDS011;36333;51.382;0.016;2023-02-08T05:17:44;32.00;;;10.25;;
31083;SDS011;36333;51.382;0.016;2023-02-08T05:20:11;33.17;;;10.32;;
31083;SDS011;36333;51.382;0.016;2023-02-08T05:25:07;30.13;;;8.95;;
31083;SDS011;36333;51.382;0.016;2023-02-08T05:27:35;29.02;;;9.20;;
31083;SDS011;36333;51.382;0.016;2023-02-08T05:30:03;38.53;;;10.48;;
31083;SDS011;36333;51.382;0.016;2023-02-08T05:34:59;33.60;;;10.00;;
31083;SDS011;36333;51.382;0.016;2023-02-08T05:37:27;32.03;;;9.65;;
31083;SDS011;36333;51.382;0.016;2023-02-08T05:39:54;30.38;;;9.65;;
31083;SDS011;36333;51.382;0.016;2023-02-08T05:42:22;36.92;;;10.40;;
31083;SDS011;36333;51.382;0.016;2023-02-08T05:44:49;35.08;;;10.65;;
31083;SDS011;36333;51.382;0.016;2023-02-08T05:47:18;32.22;;;10.60;;
31083;SDS011;36333;51.382;0.016;2023-02-08T05:49:45;37.00;;;11.13;;
31083;SDS011;36333;51.382;0.016;2023-02-08T05:52:13;34.85;;;10.85;;
31083;SDS011;36333;51.382;0.016;2023-02-08T05:54:41;38.30;;;11.57;;
31083;SDS011;36333;51.382;0.016;2023-02-08T05:57:08;42.13;;;11.93;;
31083;SDS011;36333;51.382;0.016;2023-02-08T05:59:36;32.10;;;11.30;;
31083;SDS011;36333;51.382;0.016;2023-02-08T06:02:03;35.15;;;11.38;;
31083;SDS011;36333;51.382;0.016;2023-02-08T06:04:31;41.78;;;10.90;;
31083;SDS011;36333;51.382;0.016;2023-02-08T06:06:58;38.53;;;11.75;;
31083;SDS011;36333;51.382;0.016;2023-02-08T06:09:26;40.30;;;12.40;;
31083;SDS011;36333;51.382;0.016;2023-02-08T06:11:53;44.50;;;11.73;;
31083;SDS011;36333;51.382;0.016;2023-02-08T06:14:21;38.75;;;12.18;;
31083;SDS011;36333;51.382;0.016;2023-02-08T06:16:48;36.50;;;12.30;;
31083;SDS011;36333;51.382;0.016;2023-02-08T06:19:16;38.45;;;12.50;;
31083;SDS011;36333;51.382;0.016;2023-02-08T06:24:11;40.72;;;11.15;;
31083;SDS011;36333;51.382;0.016;2023-02-08T06:26:39;34.92;;;12.55;;
31083;SDS011;36333;51.382;0.016;2023-02-08T06:29:07;40.28;;;13.25;;
31083;SDS011;36333;51.382;0.016;2023-02-08T06:34:02;35.33;;;11.35;;
31083;SDS011;36333;51.382;0.016;2023-02-08T06:36:29;44.92;;;13.30;;
31083;SDS011;36333;51.382;0.016;2023-02-08T06:38:57;49.38;;;13.52;;
31083;SDS011;36333;51.382;0.016;2023-02-08T06:41:25;39.35;;;13.80;;
31083;SDS011;36333;51.382;0.016;2023-02-08T06:43:53;37.70;;;14.15;;
31083;SDS011;36333;51.382;0.016;2023-02-08T06:46:20;48.65;;;14.57;;
31083;SDS011;36333;51.382;0.016;2023-02-08T06:48:48;45.95;;;14.35;;
31083;SDS011;36333;51.382;0.016;2023-02-08T06:51:15;39.00;;;14.27;;
31083;SDS011;36333;51.382;0.016;2023-02-08T06:53:42;41.13;;;14.13;;
31083;SDS011;36333;51.382;0.016;2023-02-08T06:56:10;39.45;;;13.88;;
31083;SDS011;36333;51.382;0.016;2023-02-08T06:58:37;42.42;;;14.25;;
31083;SDS011;36333;51.382;0.016;2023-02-08T07:01:05;43.17;;;16.20;;
31083;SDS011;36333;51.382;0.016;2023-02-08T07:03:33;49.78;;;15.82;;
31083;SDS011;36333;51.382;0.016;2023-02-08T07:06:02;43.97;;;14.82;;
31083;SDS011;36333;51.382;0.016;2023-02-08T07:08:32;49.88;;;15.15;;
31083;SDS011;36333;51.382;0.016;2023-02-08T07:11:04;43.10;;;15.65;;
31083;SDS011;36333;51.382;0.016;2023-02-08T07:13:35;51.00;;;15.23;;
31083;SDS011;36333;51.382;0.016;2023-02-08T07:16:06;45.88;;;16.25;;
31083;SDS011;36333;51.382;0.016;2023-02-08T07:18:36;44.30;;;15.98;;
31083;SDS011;36333;51.382;0.016;2023-02-08T07:21:03;47.13;;;15.68;;
31083;SDS011;36333;51.382;0.016;2023-02-08T07:23:34;43.03;;;15.82;;
31083;SDS011;36333;51.382;0.016;2023-02-08T07:28:33;53.33;;;15.48;;
31083;SDS011;36333;51.382;0.016;2023-02-08T07:31:07;48.75;;;15.50;;
31083;SDS011;36333;51.382;0.016;2023-02-08T07:33:36;40.55;;;15.27;;
31083;SDS011;36333;51.382;0.016;2023-02-08T07:36:04;47.97;;;16.67;;
31083;SDS011;36333;51.382;0.016;2023-02-08T07:39:33;47.88;;;16.98;;
31083;SDS011;36333;51.382;0.016;2023-02-08T07:44:37;52.88;;;16.70;;
31083;SDS011;36333;51.382;0.016;2023-02-08T07:47:06;55.17;;;18.17;;
31083;SDS011;36333;51.382;0.016;2023-02-08T07:49:46;49.92;;;17.08;;
31083;SDS011;36333;51.382;0.016;2023-02-08T07:52:16;59.08;;;19.58;;
31083;SDS011;36333;51.382;0.016;2023-02-08T07:55:13;59.33;;;19.42;;
31083;SDS011;36333;51.382;0.016;2023-02-08T08:06:24;57.97;;;19.00;;
31083;SDS011;36333;51.382;0.016;2023-02-08T08:13:46;67.55;;;21.23;;
31083;SDS011;36333;51.382;0.016;2023-02-08T08:17:21;56.70;;;19.42;;
31083;SDS011;36333;51.382;0.016;2023-02-08T08:19:55;60.17;;;20.13;;
31083;SDS011;36333;51.382;0.016;2023-02-08T08:22:28;71.38;;;24.70;;
31083;SDS011;36333;51.382;0.016;2023-02-08T08:24:56;79.95;;;22.92;;
31083;SDS011;36333;51.382;0.016;2023-02-08T08:27:36;72.93;;;23.75;;
31083;SDS011;36333;51.382;0.016;2023-02-08T08:30:10;64.10;;;22.90;;
31083;SDS011;36333;51.382;0.016;2023-02-08T08:32:45;76.38;;;24.05;;
31083;SDS011;36333;51.382;0.016;2023-02-08T08:35:15;68.20;;;22.48;;
31083;SDS011;36333;51.382;0.016;2023-02-08T08:37:46;71.78;;;23.55;;
31083;SDS011;36333;51.382;0.016;2023-02-08T08:40:18;66.18;;;24.08;;
31083;SDS011;36333;51.382;0.016;2023-02-08T08:42:46;63.20;;;22.45;;
31083;SDS011;36333;51.382;0.016;2023-02-08T08:45:13;72.88;;;23.58;;
31083;SDS011;36333;51.382;0.016;2023-02-08T08:47:45;71.18;;;23.88;;
31083;SDS011;36333;51.382;0.016;2023-02-08T08:50:12;68.97;;;23.88;;
31083;SDS011;36333;51.382;0.016;2023-02-08T08:52:43;70.05;;;25.67;;
31083;SDS011;36333;51.382;0.016;2023-02-08T08:55:11;79.55;;;26.17;;
31083;SDS011;36333;51.382;0.016;2023-02-08T08:57:39;63.88;;;24.02;;
31083;SDS011;36333;51.382;0.016;2023-02-08T09:00:06;72.43;;;25.50;;
31083;SDS011;36333;51.382;0.016;2023-02-08T09:02:35;77.40;;;25.83;;
31083;SDS011;36333;51.382;0.016;2023-02-08T09:05:02;81.53;;;26.77;;
31083;SDS011;36333;51.382;0.016;2023-02-08T09:07:31;87.28;;;27.45;;
31083;SDS011;36333;51.382;0.016;2023-02-08T09:09:59;76.95;;;27.85;;
31083;SDS011;36333;51.382;0.016;2023-02-08T09:12:27;82.85;;;29.38;;
31083;SDS011;36333;51.382;0.016;2023-02-08T09:14:54;85.18;;;28.65;;
31083;SDS011;36333;51.382;0.016;2023-02-08T09:17:22;76.82;;;27.75;;
31083;SDS011;36333;51.382;0.016;2023-02-08T09:19:49;83.50;;;28.35;;
31083;SDS011;36333;51.382;0.016;2023-02-08T09:22:17;82.03;;;28.67;;
31083;SDS011;36333;51.382;0.016;2023-02-08T09:24:46;86.82;;;30.17;;
31083;SDS011;36333;51.382;0.016;2023-02-08T09:27:14;80.78;;;29.95;;
31083;SDS011;36333;51.382;0.016;2023-02-08T09:29:41;81.07;;;29.60;;
31083;SDS011;36333;51.382;0.016;2023-02-08T09:32:09;99.43;;;33.00;;
31083;SDS011;36333;51.382;0.016;2023-02-08T09:34:36;93.05;;;32.13;;
31083;SDS011;36333;51.382;0.016;2023-02-08T09:37:04;91.43;;;34.33;;
31083;SDS011;36333;51.382;0.016;2023-02-08T09:39:32;106.72;;;36.58;;
31083;SDS011;36333;51.382;0.016;2023-02-08T09:44:53;110.93;;;34.60;;
31083;SDS011;36333;51.382;0.016;2023-02-08T09:47:32;95.45;;;35.50;;
31083;SDS011;36333;51.382;0.016;2023-02-08T09:50:09;104.28;;;35.80;;
31083;SDS011;36333;51.382;0.016;2023-02-08T09:53:01;119.38;;;41.22;;
31083;SDS011;36333;51.382;0.016;2023-02-08T09:55:46;127.20;;;41.92;;
31083;SDS011;36333;51.382;0.016;2023-02-08T09:58:29;121.07;;;42.35;;
31083;SDS011;36333;51.382;0.016;2023-02-08T10:01:27;125.63;;;45.65;;
31083;SDS011;36333;51.382;0.016;2023-02-08T10:04:43;128.60;;;45.47;;
31083;SDS011;36333;51.382;0.016;2023-02-08T10:06:48;126.90;;;45.58;;
31083;SDS011;36333;51.382;0.016;2023-02-08T10:09:17;140.93;;;51.47;;
31083;SDS011;36333;51.382;0.016;2023-02-08T10:12:02;142.45;;;52.45;;
31083;SDS011;36333;51.382;0.016;2023-02-08T10:24:08;147.52;;;56.30;;
31083;SDS011;36333;51.382;0.016;2023-02-08T10:26:48;141.60;;;52.33;;
31083;SDS011;36333;51.382;0.016;2023-02-08T10:32:44;128.93;;;51.25;;
31083;SDS011;36333;51.382;0.016;2023-02-08T10:35:38;115.65;;;48.17;;
31083;SDS011;36333;51.382;0.016;2023-02-08T10:38:26;125.93;;;50.28;;
31083;SDS011;36333;51.382;0.016;2023-02-08T10:41:16;124.72;;;51.17;;
31083;SDS011;36333;51.382;0.016;2023-02-08T10:46:59;112.43;;;48.35;;
31083;SDS011;36333;51.382;0.016;2023-02-08T10:49:41;119.00;;;50.60;;
31083;SDS011;36333;51.382;0.016;2023-02-08T10:52:23;122.88;;;51.60;;
31083;SDS011;36333;51.382;0.016;2023-02-08T10:54:58;118.25;;;51.08;;
31083;SDS011;36333;51.382;0.016;2023-02-08T10:57:31;124.55;;;53.88;;
31083;SDS011;36333;51.382;0.016;2023-02-08T11:00:03;125.10;;;52.17;;
31083;SDS011;36333;51.382;0.016;2023-02-08T11:02:39;112.28;;;49.95;;
31083;SDS011;36333;51.382;0.016;2023-02-08T11:08:08;82.80;;;38.65;;
31083;SDS011;36333;51.382;0.016;2023-02-08T11:10:42;77.25;;;35.78;;
31083;SDS011;36333;51.382;0.016;2023-02-08T11:13:35;70.65;;;32.92;;
31083;SDS011;36333;51.382;0.016;2023-02-08T11:16:09;62.15;;;31.65;;
31083;SDS011;36333;51.382;0.016;2023-02-08T11:21:28;69.05;;;30.73;;
31083;SDS011;36333;51.382;0.016;2023-02-08T11:24:21;58.88;;;28.45;;
31083;SDS011;36333;51.382;0.016;2023-02-08T11:26:56;59.97;;;30.15;;
31083;SDS011;36333;51.382;0.016;2023-02-08T11:29:24;70.38;;;32.08;;
31083;SDS011;36333;51.382;0.016;2023-02-08T11:37:03;53.50;;;26.83;;
31083;SDS011;36333;51.382;0.016;2023-02-08T11:39:58;54.50;;;27.83;;
31083;SDS011;36333;51.382;0.016;2023-02-08T11:42:27;56.75;;;25.85;;
31083;SDS011;36333;51.382;0.016;2023-02-08T11:45:01;43.00;;;21.42;;
31083;SDS011;36333;51.382;0.016;2023-02-08T11:47:30;50.05;;;24.70;;
31083;SDS011;36333;51.382;0.016;2023-02-08T11:50:00;48.58;;;24.15;;
31083;SDS011;36333;51.382;0.016;2023-02-08T11:52:34;48.88;;;23.70;;
31083;SDS011;36333;51.382;0.016;2023-02-08T11:58:00;48.00;;;22.65;;
31083;SDS011;36333;51.382;0.016;2023-02-08T12:00:38;44.13;;;21.42;;
31083;SDS011;36333;51.382;0.016;2023-02-08T12:03:09;40.67;;;20.48;;
31083;SDS011;36333;51.382;0.016;2023-02-08T12:11:39;40.72;;;20.17;;
31083;SDS011;36333;51.382;0.016;2023-02-08T12:14:29;44.30;;;20.92;;
31083;SDS011;36333;51.382;0.016;2023-02-08T12:26:37;37.00;;;18.15;;
31083;SDS011;36333;51.382;0.016;2023-02-08T12:29:31;34.15;;;17.85;;
31083;SDS011;36333;51.382;0.016;2023-02-08T12:41:22;36.15;;;17.40;;
31083;SDS011;36333;51.382;0.016;2023-02-08T12:44:10;36.60;;;17.52;;
31083;SDS011;36333;51.382;0.016;2023-02-08T12:49:38;39.53;;;19.83;;
31083;SDS011;36333;51.382;0.016;2023-02-08T12:52:42;44.95;;;20.20;;
31083;SDS011;36333;51.382;0.016;2023-02-08T12:55:29;36.53;;;18.63;;
31083;SDS011;36333;51.382;0.016;2023-02-08T12:58:12;38.55;;;19.65;;
31083;SDS011;36333;51.382;0.016;2023-02-08T13:01:30;35.13;;;18.23;;
31083;SDS011;36333;51.382;0.016;2023-02-08T13:04:07;35.22;;;18.98;;
31083;SDS011;36333;51.382;0.016;2023-02-08T13:06:59;33.40;;;18.38;;
31083;SDS011;36333;51.382;0.016;2023-02-08T13:12:35;37.25;;;19.92;;
31083;SDS011;36333;51.382;0.016;2023-02-08T13:15:15;38.60;;;20.45;;
31083;SDS011;36333;51.382;0.016;2023-02-08T13:17:58;32.05;;;17.42;;
31083;SDS011;36333;51.382;0.016;2023-02-08T13:26:20;27.63;;;15.50;;
31083;SDS011;36333;51.382;0.016;2023-02-08T13:28:54;30.67;;;15.80;;
31083;SDS011;36333;51.382;0.016;2023-02-08T13:31:49;29.67;;;15.32;;
31083;SDS011;36333;51.382;0.016;2023-02-08T13:34:34;30.17;;;15.63;;
31083;SDS011;36333;51.382;0.016;2023-02-08T13:37:16;35.42;;;18.42;;
31083;SDS011;36333;51.382;0.016;2023-02-08T13:42:38;39.55;;;20.15;;
31083;SDS011;36333;51.382;0.016;2023-02-08T13:45:09;40.72;;;20.90;;
31083;SDS011;36333;51.382;0.016;2023-02-08T13:47:58;45.70;;;23.15;;
31083;SDS011;36333;51.382;0.016;2023-02-08T13:53:01;39.97;;;21.23;;
31083;SDS011;36333;51.382;0.016;2023-02-08T14:03:23;37.00;;;19.52;;
31083;SDS011;36333;51.382;0.016;2023-02-08T14:08:28;35.85;;;20.30;;
31083;SDS011;36333;51.382;0.016;2023-02-08T14:13:53;38.38;;;20.35;;
31083;SDS011;36333;51.382;0.016;2023-02-08T14:16:34;42.20;;;21.63;;
31083;SDS011;36333;51.382;0.016;2023-02-08T14:24:18;38.38;;;20.58;;
31083;SDS011;36333;51.382;0.016;2023-02-08T14:27:04;39.95;;;20.35;;
31083;SDS011;36333;51.382;0.016;2023-02-08T14:32:29;37.50;;;19.83;;
31083;SDS011;36333;51.382;0.016;2023-02-08T14:35:05;38.05;;;19.65;;
31083;SDS011;36333;51.382;0.016;2023-02-08T14:37:44;39.03;;;20.42;;
31083;SDS011;36333;51.382;0.016;2023-02-08T14:45:30;38.03;;;19.25;;
31083;SDS011;36333;51.382;0.016;2023-02-08T14:50:51;33.10;;;17.80;;
31083;SDS011;36333;51.382;0.016;2023-02-08T14:53:41;32.42;;;16.63;;
31083;SDS011;36333;51.382;0.016;2023-02-08T14:56:21;35.40;;;17.80;;
31083;SDS011;36333;51.382;0.016;2023-02-08T14:59:14;34.08;;;16.75;;
31083;SDS011;36333;51.382;0.016;2023-02-08T15:01:49;32.42;;;17.02;;
31083;SDS011;36333;51.382;0.016;2023-02-08T15:04:24;31.75;;;16.67;;
31083;SDS011;36333;51.382;0.016;2023-02-08T15:09:35;28.40;;;14.43;;
31083;SDS011;36333;51.382;0.016;2023-02-08T15:12:12;28.10;;;14.70;;
31083;SDS011;36333;51.382;0.016;2023-02-08T15:14:51;31.45;;;14.20;;
31083;SDS011;36333;51.382;0.016;2023-02-08T15:17:34;26.13;;;13.50;;
31083;SDS011;36333;51.382;0.016;2023-02-08T15:20:12;29.02;;;12.73;;
31083;SDS011;36333;51.382;0.016;2023-02-08T15:22:46;24.63;;;12.50;;
31083;SDS011;36333;51.382;0.016;2023-02-08T15:25:21;24.35;;;13.07;;
31083;SDS011;36333;51.382;0.016;2023-02-08T15:27:59;26.13;;;12.82;;
31083;SDS011;36333;51.382;0.016;2023-02-08T15:33:25;23.70;;;12.68;;
31083;SDS011;36333;51.382;0.016;2023-02-08T15:35:57;24.67;;;13.10;;
31083;SDS011;36333;51.382;0.016;2023-02-08T15:38:26;25.17;;;14.02;;
31083;SDS011;36333;51.382;0.016;2023-02-08T15:41:06;32.58;;;14.73;;
31083;SDS011;36333;51.382;0.016;2023-02-08T15:46:41;27.92;;;14.25;;
31083;SDS011;36333;51.382;0.016;2023-02-08T15:49:16;29.80;;;14.18;;
31083;SDS011;36333;51.382;0.016;2023-02-08T15:51:53;25.63;;;12.98;;
31083;SDS011;36333;51.382;0.016;2023-02-08T15:54:23;31.50;;;15.10;;
31083;SDS011;36333;51.382;0.016;2023-02-08T15:59:28;30.98;;;16.55;;
31083;SDS011;36333;51.382;0.016;2023-02-08T16:02:07;29.13;;;15.75;;
31083;SDS011;36333;51.382;0.016;2023-02-08T16:04:45;29.85;;;16.10;;
31083;SDS011;36333;51.382;0.016;2023-02-08T16:07:23;33.58;;;15.45;;
31083;SDS011;36333;51.382;0.016;2023-02-08T16:10:04;28.90;;;15.48;;
31083;SDS011;36333;51.382;0.016;2023-02-08T16:12:33;29.55;;;16.58;;
31083;SDS011;36333;51.382;0.016;2023-02-08T16:15:02;33.65;;;16.05;;
31083;SDS011;36333;51.382;0.016;2023-02-08T16:20:22;31.75;;;16.38;;
31083;SDS011;36333;51.382;0.016;2023-02-08T16:23:02;33.90;;;16.65;;
31083;SDS011;36333;51.382;0.016;2023-02-08T16:25:48;33.33;;;16.67;;
31083;SDS011;36333;51.382;0.016;2023-02-08T16:30:58;35.38;;;16.73;;
31083;SDS011;36333;51.382;0.016;2023-02-08T16:33:27;236.38;;;92.57;;
31083;SDS011;36333;51.382;0.016;2023-02-08T16:35:56;73.55;;;33.45;;
31083;SDS011;36333;51.382;0.016;2023-02-08T16:38:29;54.67;;;28.13;;
31083;SDS011;36333;51.382;0.016;2023-02-08T16:41:01;47.10;;;25.98;;
31083;SDS011;36333;51.382;0.016;2023-02-08T16:43:39;39.65;;;20.60;;
31083;SDS011;36333;51.382;0.016;2023-02-08T16:48:43;36.03;;;19.33;;
31083;SDS011;36333;51.382;0.016;2023-02-08T16:51:25;42.90;;;20.17;;
31083;SDS011;36333;51.382;0.016;2023-02-08T16:53:55;41.03;;;19.77;;
31083;SDS011;36333;51.382;0.016;2023-02-08T16:56:28;38.92;;;20.02;;
31083;SDS011;36333;51.382;0.016;2023-02-08T16:58:56;44.40;;;23.27;;
31083;SDS011;36333;51.382;0.016;2023-02-08T17:01:23;49.03;;;23.92;;
31083;SDS011;36333;51.382;0.016;2023-02-08T17:03:52;53.22;;;26.88;;
31083;SDS011;36333;51.382;0.016;2023-02-08T17:08:59;58.55;;;27.15;;
31083;SDS011;36333;51.382;0.016;2023-02-08T17:11:28;54.40;;;24.83;;
31083;SDS011;36333;51.382;0.016;2023-02-08T17:14:04;56.55;;;25.77;;
31083;SDS011;36333;51.382;0.016;2023-02-08T17:16:33;60.45;;;27.42;;
31083;SDS011;36333;51.382;0.016;2023-02-08T17:19:02;63.17;;;29.20;;
31083;SDS011;36333;51.382;0.016;2023-02-08T17:21:33;73.88;;;32.47;;
31083;SDS011;36333;51.382;0.016;2023-02-08T17:24:00;79.53;;;33.25;;
31083;SDS011;36333;51.382;0.016;2023-02-08T17:26:33;77.15;;;32.95;;
31083;SDS011;36333;51.382;0.016;2023-02-08T17:29:05;73.45;;;32.88;;
31083;SDS011;36333;51.382;0.016;2023-02-08T17:31:34;70.90;;;31.77;;
31083;SDS011;36333;51.382;0.016;2023-02-08T17:34:02;75.68;;;31.48;;
31083;SDS011;36333;51.382;0.016;2023-02-08T17:36:34;59.97;;;28.88;;
31083;SDS011;36333;51.382;0.016;2023-02-08T17:39:04;61.17;;;28.20;;
31083;SDS011;36333;51.382;0.016;2023-02-08T17:41:38;69.93;;;29.90;;
31083;SDS011;36333;51.382;0.016;2023-02-08T17:44:06;64.03;;;28.85;;
31083;SDS011;36333;51.382;0.016;2023-02-08T17:46:34;62.42;;;27.48;;
31083;SDS011;36333;51.382;0.016;2023-02-08T17:49:04;56.05;;;26.95;;
31083;SDS011;36333;51.382;0.016;2023-02-08T17:51:32;63.00;;;28.45;;
31083;SDS011;36333;51.382;0.016;2023-02-08T17:54:03;68.82;;;32.53;;
31083;SDS011;36333;51.382;0.016;2023-02-08T17:56:31;82.10;;;36.50;;
31083;SDS011;36333;51.382;0.016;2023-02-08T17:59:01;77.22;;;35.05;;
31083;SDS011;36333;51.382;0.016;2023-02-08T18:01:31;78.65;;;35.38;;
31083;SDS011;36333;51.382;0.016;2023-02-08T18:03:59;71.40;;;33.42;;
31083;SDS011;36333;51.382;0.016;2023-02-08T18:06:27;70.55;;;31.85;;
31083;SDS011;36333;51.382;0.016;2023-02-08T18:08:55;78.22;;;32.22;;
31083;SDS011;36333;51.382;0.016;2023-02-08T18:11:23;76.65;;;33.83;;
31083;SDS011;36333;51.382;0.016;2023-02-08T18:13:51;71.70;;;33.78;;
31083;SDS011;36333;51.382;0.016;2023-02-08T18:16:21;76.18;;;33.60;;
31083;SDS011;36333;51.382;0.016;2023-02-08T18:18:53;77.47;;;34.58;;
31083;SDS011;36333;51.382;0.016;2023-02-08T18:21:22;77.13;;;33.75;;
31083;SDS011;36333;51.382;0.016;2023-02-08T18:23:55;77.22;;;33.17;;
31083;SDS011;36333;51.382;0.016;2023-02-08T18:26:27;75.63;;;33.85;;
31083;SDS011;36333;51.382;0.016;2023-02-08T18:28:56;83.25;;;35.88;;